sensor_id;sensor_type;location;lat;lon;timestamp;temperature;humidity
4809;DHT22;2418;49.930;8.606;2022-11-02T00:01:20;10.20;99.20
4809;DHT22;2418;49.930;8.606;2022-11-02T00:03:46;10.20;99.20
4809;DHT22;2418;49.930;8.606;2022-11-02T00:06:12;10.20;99.20
4809;DHT22;2418;49.930;8.606;2022-11-02T00:08:38;10.20;99.20
4809;DHT22;2418;49.930;8.606;2022-11-02T00:11:03;10.20;99.20
4809;DHT22;2418;49.930;8.606;2022-11-02T00:13:29;10.20;99.20
4809;DHT22;2418;49.930;8.606;2022-11-02T00:15:55;10.20;99.20
4809;DHT22;2418;49.930;8.606;2022-11-02T00:18:21;10.20;99.20
4809;DHT22;2418;49.930;8.606;2022-11-02T00:20:47;10.20;99.20
4809;DHT22;2418;49.930;8.606;2022-11-02T00:23:13;10.20;99.20
4809;DHT22;2418;49.930;8.606;2022-11-02T00:25:45;10.20;99.20
4809;DHT22;2418;49.930;8.606;2022-11-02T00:28:12;10.10;99.20
4809;DHT22;2418;49.930;8.606;2022-11-02T00:30:38;10.20;99.20
4809;DHT22;2418;49.930;8.606;2022-11-02T00:33:03;10.20;99.20
4809;DHT22;2418;49.930;8.606;2022-11-02T00:35:29;10.30;99.20
4809;DHT22;2418;49.930;8.606;2022-11-02T00:37:55;10.30;99.20
4809;DHT22;2418;49.930;8.606;2022-11-02T00:40:20;10.40;99.20
4809;DHT22;2418;49.930;8.606;2022-11-02T00:42:46;10.40;99.20
4809;DHT22;2418;49.930;8.606;2022-11-02T00:45:11;10.50;99.20
4809;DHT22;2418;49.930;8.606;2022-11-02T00:47:37;10.50;99.20
4809;DHT22;2418;49.930;8.606;2022-11-02T00:50:03;10.50;99.20
4809;DHT22;2418;49.930;8.606;2022-11-02T00:52:29;10.50;99.20
4809;DHT22;2418;49.930;8.606;2022-11-02T00:54:55;10.50;99.20
4809;DHT22;2418;49.930;8.606;2022-11-02T00:57:21;10.60;99.20
4809;DHT22;2418;49.930;8.606;2022-11-02T00:59:47;10.60;99.20
4809;DHT22;2418;49.930;8.606;2022-11-02T01:02:12;10.70;99.20
4809;DHT22;2418;49.930;8.606;2022-11-02T01:04:38;10.70;99.20
4809;DHT22;2418;49.930;8.606;2022-11-02T01:07:04;10.80;99.20
4809;DHT22;2418;49.930;8.606;2022-11-02T01:09:29;10.80;99.20
4809;DHT22;2418;49.930;8.606;2022-11-02T01:11:55;10.80;99.20
4809;DHT22;2418;49.930;8.606;2022-11-02T01:14:21;10.80;99.20
4809;DHT22;2418;49.930;8.606;2022-11-02T01:16:47;10.90;99.20
4809;DHT22;2418;49.930;8.606;2022-11-02T01:19:13;10.80;99.20
4809;DHT22;2418;49.930;8.606;2022-11-02T01:21:38;10.90;99.20
4809;DHT22;2418;49.930;8.606;2022-11-02T01:24:04;10.90;99.20
4809;DHT22;2418;49.930;8.606;2022-11-02T01:26:30;10.80;99.20
4809;DHT22;2418;49.930;8.606;2022-11-02T01:28:56;10.80;99.20
4809;DHT22;2418;49.930;8.606;2022-11-02T01:31:21;10.80;99.20
4809;DHT22;2418;49.930;8.606;2022-11-02T01:33:47;10.80;99.20
4809;DHT22;2418;49.930;8.606;2022-11-02T01:36:14;10.70;99.20
4809;DHT22;2418;49.930;8.606;2022-11-02T01:38:40;10.70;99.20
4809;DHT22;2418;49.930;8.606;2022-11-02T01:41:06;10.60;99.20
4809;DHT22;2418;49.930;8.606;2022-11-02T01:43:35;10.70;99.20
4809;DHT22;2418;49.930;8.606;2022-11-02T01:49:00;10.70;99.20
4809;DHT22;2418;49.930;8.606;2022-11-02T01:51:49;10.60;99.20
4809;DHT22;2418;49.930;8.606;2022-11-02T01:54:18;10.60;99.20
4809;DHT22;2418;49.930;8.606;2022-11-02T01:56:47;10.60;99.20
4809;DHT22;2418;49.930;8.606;2022-11-02T01:59:17;10.50;99.20
4809;DHT22;2418;49.930;8.606;2022-11-02T02:01:44;10.60;99.20
4809;DHT22;2418;49.930;8.606;2022-11-02T02:04:11;10.60;99.20
4809;DHT22;2418;49.930;8.606;2022-11-02T02:06:38;10.60;99.20
4809;DHT22;2418;49.930;8.606;2022-11-02T02:09:04;10.60;99.20
4809;DHT22;2418;49.930;8.606;2022-11-02T02:11:34;10.60;99.20
4809;DHT22;2418;49.930;8.606;2022-11-02T02:14:05;10.60;99.20
4809;DHT22;2418;49.930;8.606;2022-11-02T02:30:15;10.40;99.20
4809;DHT22;2418;49.930;8.606;2022-11-02T02:32:57;10.40;99.20
4809;DHT22;2418;49.930;8.606;2022-11-02T02:35:35;10.40;99.20
4809;DHT22;2418;49.930;8.606;2022-11-02T02:38:08;10.50;99.20
4809;DHT22;2418;49.930;8.606;2022-11-02T02:40:38;10.50;99.20
4809;DHT22;2418;49.930;8.606;2022-11-02T02:43:19;10.50;99.20
4809;DHT22;2418;49.930;8.606;2022-11-02T02:45:57;10.50;99.20
4809;DHT22;2418;49.930;8.606;2022-11-02T02:48:25;10.50;99.20
4809;DHT22;2418;49.930;8.606;2022-11-02T02:51:01;10.50;99.20
4809;DHT22;2418;49.930;8.606;2022-11-02T02:53:38;10.50;99.20
4809;DHT22;2418;49.930;8.606;2022-11-02T02:56:05;10.60;99.20
4809;DHT22;2418;49.930;8.606;2022-11-02T02:58:37;10.70;99.20
4809;DHT22;2418;49.930;8.606;2022-11-02T03:01:05;10.70;99.20
4809;DHT22;2418;49.930;8.606;2022-11-02T03:03:32;10.70;99.20
4809;DHT22;2418;49.930;8.606;2022-11-02T03:08:42;10.70;99.20
4809;DHT22;2418;49.930;8.606;2022-11-02T03:11:18;10.80;99.20
4809;DHT22;2418;49.930;8.606;2022-11-02T03:16:23;10.70;99.20
4809;DHT22;2418;49.930;8.606;2022-11-02T03:21:44;10.80;99.20
4809;DHT22;2418;49.930;8.606;2022-11-02T03:24:18;10.70;99.20
4809;DHT22;2418;49.930;8.606;2022-11-02T03:29:24;10.80;99.20
4809;DHT22;2418;49.930;8.606;2022-11-02T03:31:57;10.70;99.20
4809;DHT22;2418;49.930;8.606;2022-11-02T03:34:29;10.70;99.20
4809;DHT22;2418;49.930;8.606;2022-11-02T03:39:51;10.70;99.20
4809;DHT22;2418;49.930;8.606;2022-11-02T03:42:24;10.70;99.20
4809;DHT22;2418;49.930;8.606;2022-11-02T03:44:56;10.80;99.20
4809;DHT22;2418;49.930;8.606;2022-11-02T03:47:23;10.70;99.20
4809;DHT22;2418;49.930;8.606;2022-11-02T03:49:51;10.70;99.20
4809;DHT22;2418;49.930;8.606;2022-11-02T03:52:23;10.70;99.20
4809;DHT22;2418;49.930;8.606;2022-11-02T03:55:32;10.70;99.20
4809;DHT22;2418;49.930;8.606;2022-11-02T03:57:50;10.70;99.20
4809;DHT22;2418;49.930;8.606;2022-11-02T04:00:21;10.70;99.20
4809;DHT22;2418;49.930;8.606;2022-11-02T04:02:51;10.80;99.20
4809;DHT22;2418;49.930;8.606;2022-11-02T04:05:18;10.90;99.20
4809;DHT22;2418;49.930;8.606;2022-11-02T04:07:48;10.90;99.20
4809;DHT22;2418;49.930;8.606;2022-11-02T04:10:33;10.90;99.20
4809;DHT22;2418;49.930;8.606;2022-11-02T04:12:58;11.00;99.20
4809;DHT22;2418;49.930;8.606;2022-11-02T04:15:43;11.10;99.20
4809;DHT22;2418;49.930;8.606;2022-11-02T04:18:08;11.10;99.20
4809;DHT22;2418;49.930;8.606;2022-11-02T04:20:52;11.10;99.20
4809;DHT22;2418;49.930;8.606;2022-11-02T04:23:18;11.20;99.20
4809;DHT22;2418;49.930;8.606;2022-11-02T04:26:04;11.20;99.20
4809;DHT22;2418;49.930;8.606;2022-11-02T04:28:29;11.20;99.20
4809;DHT22;2418;49.930;8.606;2022-11-02T04:30:57;11.20;99.20
4809;DHT22;2418;49.930;8.606;2022-11-02T04:33:24;11.20;99.20
4809;DHT22;2418;49.930;8.606;2022-11-02T04:36:00;11.20;99.20
4809;DHT22;2418;49.930;8.606;2022-11-02T04:38:27;11.20;99.20
4809;DHT22;2418;49.930;8.606;2022-11-02T04:41:06;11.20;99.20
4809;DHT22;2418;49.930;8.606;2022-11-02T04:43:50;11.20;99.20
4809;DHT22;2418;49.930;8.606;2022-11-02T04:46:16;11.20;99.20
4809;DHT22;2418;49.930;8.606;2022-11-02T04:48:41;11.10;99.20
4809;DHT22;2418;49.930;8.606;2022-11-02T04:51:07;11.00;99.20
4809;DHT22;2418;49.930;8.606;2022-11-02T04:53:32;10.90;99.20
4809;DHT22;2418;49.930;8.606;2022-11-02T04:55:59;10.80;99.20
4809;DHT22;2418;49.930;8.606;2022-11-02T04:58:25;10.80;99.20
4809;DHT22;2418;49.930;8.606;2022-11-02T05:00:51;10.70;99.20
4809;DHT22;2418;49.930;8.606;2022-11-02T05:03:16;10.60;99.20
4809;DHT22;2418;49.930;8.606;2022-11-02T05:05:42;10.50;99.20
4809;DHT22;2418;49.930;8.606;2022-11-02T05:08:08;10.50;99.20
4809;DHT22;2418;49.930;8.606;2022-11-02T05:10:34;10.40;99.20
4809;DHT22;2418;49.930;8.606;2022-11-02T05:13:00;10.40;99.20
4809;DHT22;2418;49.930;8.606;2022-11-02T05:15:26;10.30;99.20
4809;DHT22;2418;49.930;8.606;2022-11-02T05:17:51;10.30;99.20
4809;DHT22;2418;49.930;8.606;2022-11-02T05:20:17;10.30;99.20
4809;DHT22;2418;49.930;8.606;2022-11-02T05:22:43;10.30;99.20
4809;DHT22;2418;49.930;8.606;2022-11-02T05:25:09;10.30;99.20
4809;DHT22;2418;49.930;8.606;2022-11-02T05:27:35;10.20;99.20
4809;DHT22;2418;49.930;8.606;2022-11-02T05:30:02;10.20;99.20
4809;DHT22;2418;49.930;8.606;2022-11-02T05:32:28;10.10;99.20
4809;DHT22;2418;49.930;8.606;2022-11-02T05:34:54;10.10;99.20
4809;DHT22;2418;49.930;8.606;2022-11-02T05:37:19;10.10;99.20
4809;DHT22;2418;49.930;8.606;2022-11-02T05:39:45;10.00;99.20
4809;DHT22;2418;49.930;8.606;2022-11-02T05:42:11;10.00;99.20
4809;DHT22;2418;49.930;8.606;2022-11-02T05:44:36;9.90;99.20
4809;DHT22;2418;49.930;8.606;2022-11-02T05:47:12;9.90;99.20
4809;DHT22;2418;49.930;8.606;2022-11-02T05:49:38;9.90;99.20
4809;DHT22;2418;49.930;8.606;2022-11-02T05:52:03;9.90;99.20
4809;DHT22;2418;49.930;8.606;2022-11-02T05:54:29;9.80;99.20
4809;DHT22;2418;49.930;8.606;2022-11-02T05:56:56;9.80;99.20
4809;DHT22;2418;49.930;8.606;2022-11-02T05:59:21;9.80;99.20
4809;DHT22;2418;49.930;8.606;2022-11-02T06:01:47;9.80;99.20
4809;DHT22;2418;49.930;8.606;2022-11-02T06:04:13;9.80;99.20
4809;DHT22;2418;49.930;8.606;2022-11-02T06:06:38;9.80;99.20
4809;DHT22;2418;49.930;8.606;2022-11-02T06:09:04;9.80;99.20
4809;DHT22;2418;49.930;8.606;2022-11-02T06:11:29;9.70;99.20
4809;DHT22;2418;49.930;8.606;2022-11-02T06:13:55;9.70;99.20
4809;DHT22;2418;49.930;8.606;2022-11-02T06:16:20;9.70;99.20
4809;DHT22;2418;49.930;8.606;2022-11-02T06:18:46;9.70;99.20
4809;DHT22;2418;49.930;8.606;2022-11-02T06:21:12;9.80;99.20
4809;DHT22;2418;49.930;8.606;2022-11-02T06:23:37;9.70;99.20
4809;DHT22;2418;49.930;8.606;2022-11-02T06:26:04;9.70;99.20
4809;DHT22;2418;49.930;8.606;2022-11-02T06:28:30;9.70;99.20
4809;DHT22;2418;49.930;8.606;2022-11-02T06:30:55;9.70;99.20
4809;DHT22;2418;49.930;8.606;2022-11-02T06:33:21;9.60;99.20
4809;DHT22;2418;49.930;8.606;2022-11-02T06:35:49;9.70;99.20
4809;DHT22;2418;49.930;8.606;2022-11-02T06:38:15;9.70;99.20
4809;DHT22;2418;49.930;8.606;2022-11-02T06:40:41;9.80;99.20
4809;DHT22;2418;49.930;8.606;2022-11-02T06:43:07;9.80;99.20
4809;DHT22;2418;49.930;8.606;2022-11-02T06:45:32;9.90;99.20
4809;DHT22;2418;49.930;8.606;2022-11-02T06:47:58;9.90;99.20
4809;DHT22;2418;49.930;8.606;2022-11-02T06:50:24;10.00;99.20
4809;DHT22;2418;49.930;8.606;2022-11-02T06:52:50;10.10;99.20
4809;DHT22;2418;49.930;8.606;2022-11-02T06:55:16;10.00;99.20
4809;DHT22;2418;49.930;8.606;2022-11-02T06:57:42;10.00;99.20
4809;DHT22;2418;49.930;8.606;2022-11-02T07:00:13;10.00;99.20
4809;DHT22;2418;49.930;8.606;2022-11-02T07:02:44;10.10;99.20
4809;DHT22;2418;49.930;8.606;2022-11-02T07:05:10;10.10;99.20
4809;DHT22;2418;49.930;8.606;2022-11-02T07:07:35;10.10;99.20
4809;DHT22;2418;49.930;8.606;2022-11-02T07:10:01;10.10;99.20
4809;DHT22;2418;49.930;8.606;2022-11-02T07:12:27;10.10;99.20
4809;DHT22;2418;49.930;8.606;2022-11-02T07:14:52;10.10;99.20
4809;DHT22;2418;49.930;8.606;2022-11-02T07:17:18;10.20;99.20
4809;DHT22;2418;49.930;8.606;2022-11-02T07:19:43;10.20;99.20
4809;DHT22;2418;49.930;8.606;2022-11-02T07:22:09;10.30;99.20
4809;DHT22;2418;49.930;8.606;2022-11-02T07:24:35;10.30;99.20
4809;DHT22;2418;49.930;8.606;2022-11-02T07:27:00;10.40;99.20
4809;DHT22;2418;49.930;8.606;2022-11-02T07:29:26;10.50;99.20
4809;DHT22;2418;49.930;8.606;2022-11-02T07:31:51;10.60;99.20
4809;DHT22;2418;49.930;8.606;2022-11-02T07:34:17;10.70;99.20
4809;DHT22;2418;49.930;8.606;2022-11-02T07:36:42;10.70;99.20
4809;DHT22;2418;49.930;8.606;2022-11-02T07:39:08;10.80;99.20
4809;DHT22;2418;49.930;8.606;2022-11-02T07:41:34;10.80;99.20
4809;DHT22;2418;49.930;8.606;2022-11-02T07:44:00;10.90;99.20
4809;DHT22;2418;49.930;8.606;2022-11-02T07:46:26;11.00;99.20
4809;DHT22;2418;49.930;8.606;2022-11-02T07:48:51;11.10;99.20
4809;DHT22;2418;49.930;8.606;2022-11-02T07:51:17;11.10;99.20
4809;DHT22;2418;49.930;8.606;2022-11-02T07:53:43;11.20;99.20
4809;DHT22;2418;49.930;8.606;2022-11-02T07:56:08;11.40;99.20
4809;DHT22;2418;49.930;8.606;2022-11-02T07:58:35;11.40;99.20
4809;DHT22;2418;49.930;8.606;2022-11-02T08:01:01;11.50;99.20
4809;DHT22;2418;49.930;8.606;2022-11-02T08:03:27;11.60;99.20
4809;DHT22;2418;49.930;8.606;2022-11-02T08:05:53;11.80;99.20
4809;DHT22;2418;49.930;8.606;2022-11-02T08:08:21;11.90;99.20
4809;DHT22;2418;49.930;8.606;2022-11-02T08:10:49;12.00;99.20
4809;DHT22;2418;49.930;8.606;2022-11-02T08:13:23;12.20;99.20
4809;DHT22;2418;49.930;8.606;2022-11-02T08:15:53;12.30;99.20
4809;DHT22;2418;49.930;8.606;2022-11-02T08:18:24;12.50;99.20
4809;DHT22;2418;49.930;8.606;2022-11-02T08:20:50;12.60;99.20
4809;DHT22;2418;49.930;8.606;2022-11-02T08:23:18;12.80;99.20
4809;DHT22;2418;49.930;8.606;2022-11-02T08:25:45;12.90;99.20
4809;DHT22;2418;49.930;8.606;2022-11-02T08:28:20;13.00;99.20
4809;DHT22;2418;49.930;8.606;2022-11-02T08:30:46;13.10;99.20
4809;DHT22;2418;49.930;8.606;2022-11-02T08:33:13;13.20;99.20
4809;DHT22;2418;49.930;8.606;2022-11-02T08:35:41;13.40;99.20
4809;DHT22;2418;49.930;8.606;2022-11-02T08:38:08;13.50;99.20
4809;DHT22;2418;49.930;8.606;2022-11-02T08:40:34;13.60;99.20
4809;DHT22;2418;49.930;8.606;2022-11-02T08:43:05;13.70;99.20
4809;DHT22;2418;49.930;8.606;2022-11-02T08:45:33;13.80;99.20
4809;DHT22;2418;49.930;8.606;2022-11-02T08:47:59;13.90;99.20
4809;DHT22;2418;49.930;8.606;2022-11-02T08:50:25;14.00;99.20
4809;DHT22;2418;49.930;8.606;2022-11-02T08:52:51;14.20;99.20
4809;DHT22;2418;49.930;8.606;2022-11-02T08:55:17;14.20;99.20
4809;DHT22;2418;49.930;8.606;2022-11-02T08:57:47;14.20;99.20
4809;DHT22;2418;49.930;8.606;2022-11-02T09:00:13;14.30;99.20
4809;DHT22;2418;49.930;8.606;2022-11-02T09:02:39;14.40;99.20
4809;DHT22;2418;49.930;8.606;2022-11-02T09:05:04;14.40;99.20
4809;DHT22;2418;49.930;8.606;2022-11-02T09:07:30;14.50;99.20
4809;DHT22;2418;49.930;8.606;2022-11-02T09:09:56;14.60;99.20
4809;DHT22;2418;49.930;8.606;2022-11-02T09:12:21;14.60;99.20
4809;DHT22;2418;49.930;8.606;2022-11-02T09:14:47;14.70;99.20
4809;DHT22;2418;49.930;8.606;2022-11-02T09:17:12;14.70;99.20
4809;DHT22;2418;49.930;8.606;2022-11-02T09:19:38;14.80;99.20
4809;DHT22;2418;49.930;8.606;2022-11-02T09:22:03;14.80;99.20
4809;DHT22;2418;49.930;8.606;2022-11-02T09:24:29;14.80;99.20
4809;DHT22;2418;49.930;8.606;2022-11-02T09:26:54;14.90;99.20
4809;DHT22;2418;49.930;8.606;2022-11-02T09:29:20;15.00;99.20
4809;DHT22;2418;49.930;8.606;2022-11-02T09:31:45;15.00;99.20
4809;DHT22;2418;49.930;8.606;2022-11-02T09:34:13;15.00;99.20
4809;DHT22;2418;49.930;8.606;2022-11-02T09:36:39;15.00;99.20
4809;DHT22;2418;49.930;8.606;2022-11-02T09:39:05;14.90;99.20
4809;DHT22;2418;49.930;8.606;2022-11-02T09:41:43;14.90;99.20
4809;DHT22;2418;49.930;8.606;2022-11-02T09:44:13;15.00;99.20
4809;DHT22;2418;49.930;8.606;2022-11-02T09:46:44;15.00;99.20
4809;DHT22;2418;49.930;8.606;2022-11-02T09:49:18;15.10;99.20
4809;DHT22;2418;49.930;8.606;2022-11-02T09:51:52;15.20;99.20
4809;DHT22;2418;49.930;8.606;2022-11-02T09:54:24;15.10;99.20
4809;DHT22;2418;49.930;8.606;2022-11-02T09:56:55;15.10;99.20
4809;DHT22;2418;49.930;8.606;2022-11-02T09:59:26;15.20;99.20
4809;DHT22;2418;49.930;8.606;2022-11-02T10:01:57;15.30;99.20
4809;DHT22;2418;49.930;8.606;2022-11-02T10:05:04;15.40;99.20
4809;DHT22;2418;49.930;8.606;2022-11-02T10:10:19;15.40;99.20
4809;DHT22;2418;49.930;8.606;2022-11-02T10:12:56;15.40;99.20
4809;DHT22;2418;49.930;8.606;2022-11-02T10:15:34;15.40;99.20
4809;DHT22;2418;49.930;8.606;2022-11-02T10:18:02;15.50;99.20
4809;DHT22;2418;49.930;8.606;2022-11-02T10:20:44;15.50;99.20
4809;DHT22;2418;49.930;8.606;2022-11-02T10:23:22;15.70;99.20
4809;DHT22;2418;49.930;8.606;2022-11-02T10:25:49;15.80;99.20
4809;DHT22;2418;49.930;8.606;2022-11-02T10:28:19;15.80;99.20
4809;DHT22;2418;49.930;8.606;2022-11-02T10:30:45;15.90;99.20
4809;DHT22;2418;49.930;8.606;2022-11-02T10:33:17;15.70;99.20
4809;DHT22;2418;49.930;8.606;2022-11-02T10:46:35;15.40;99.20
4809;DHT22;2418;49.930;8.606;2022-11-02T10:49:20;15.70;99.20
4809;DHT22;2418;49.930;8.606;2022-11-02T10:51:51;16.00;99.20
4809;DHT22;2418;49.930;8.606;2022-11-02T10:54:16;16.00;99.20
4809;DHT22;2418;49.930;8.606;2022-11-02T10:56:42;16.00;99.20
4809;DHT22;2418;49.930;8.606;2022-11-02T10:59:19;16.10;99.20
4809;DHT22;2418;49.930;8.606;2022-11-02T11:02:12;16.20;99.20
4809;DHT22;2418;49.930;8.606;2022-11-02T11:04:38;16.20;99.20
4809;DHT22;2418;49.930;8.606;2022-11-02T11:07:20;16.30;99.20
4809;DHT22;2418;49.930;8.606;2022-11-02T11:09:52;16.40;99.20
4809;DHT22;2418;49.930;8.606;2022-11-02T11:12:30;16.40;99.20
4809;DHT22;2418;49.930;8.606;2022-11-02T11:14:58;16.40;99.20
4809;DHT22;2418;49.930;8.606;2022-11-02T11:17:43;16.60;99.20
4809;DHT22;2418;49.930;8.606;2022-11-02T11:23:24;16.50;99.20
4809;DHT22;2418;49.930;8.606;2022-11-02T11:25:59;16.60;99.20
4809;DHT22;2418;49.930;8.606;2022-11-02T11:28:37;16.60;99.20
4809;DHT22;2418;49.930;8.606;2022-11-02T11:33:39;16.70;99.20
4809;DHT22;2418;49.930;8.606;2022-11-02T11:36:08;16.70;99.20
4809;DHT22;2418;49.930;8.606;2022-11-02T11:38:34;16.80;99.20
4809;DHT22;2418;49.930;8.606;2022-11-02T11:41:01;16.80;99.20
4809;DHT22;2418;49.930;8.606;2022-11-02T11:43:30;16.80;99.20
4809;DHT22;2418;49.930;8.606;2022-11-02T11:45:59;16.90;99.20
4809;DHT22;2418;49.930;8.606;2022-11-02T11:51:01;16.90;99.20
4809;DHT22;2418;49.930;8.606;2022-11-02T11:53:30;16.90;99.20
4809;DHT22;2418;49.930;8.606;2022-11-02T11:55:58;16.80;99.20
4809;DHT22;2418;49.930;8.606;2022-11-02T11:58:33;16.80;99.20
4809;DHT22;2418;49.930;8.606;2022-11-02T12:03:31;17.10;99.20
4809;DHT22;2418;49.930;8.606;2022-11-02T12:06:14;17.10;99.20
4809;DHT22;2418;49.930;8.606;2022-11-02T12:20:25;17.20;99.20
4809;DHT22;2418;49.930;8.606;2022-11-02T12:23:21;17.20;99.20
4809;DHT22;2418;49.930;8.606;2022-11-02T12:28:50;17.30;99.20
4809;DHT22;2418;49.930;8.606;2022-11-02T12:34:28;17.30;99.20
4809;DHT22;2418;49.930;8.606;2022-11-02T12:37:48;17.20;99.20
4809;DHT22;2418;49.930;8.606;2022-11-02T12:42:42;16.90;99.20
4809;DHT22;2418;49.930;8.606;2022-11-02T12:45:19;16.80;99.20
4809;DHT22;2418;49.930;8.606;2022-11-02T12:55:23;16.80;99.20
4809;DHT22;2418;49.930;8.606;2022-11-02T12:57:52;16.80;99.20
4809;DHT22;2418;49.930;8.606;2022-11-02T13:00:20;16.90;99.20
4809;DHT22;2418;49.930;8.606;2022-11-02T13:03:04;16.80;99.20
4809;DHT22;2418;49.930;8.606;2022-11-02T13:05:37;16.80;99.20
4809;DHT22;2418;49.930;8.606;2022-11-02T13:08:23;16.70;99.20
4809;DHT22;2418;49.930;8.606;2022-11-02T13:10:55;16.50;99.20
4809;DHT22;2418;49.930;8.606;2022-11-02T13:13:41;16.40;99.20
4809;DHT22;2418;49.930;8.606;2022-11-02T13:19:20;16.40;99.20
4809;DHT22;2418;49.930;8.606;2022-11-02T13:21:53;16.40;99.20
4809;DHT22;2418;49.930;8.606;2022-11-02T13:24:22;16.40;99.20
4809;DHT22;2418;49.930;8.606;2022-11-02T13:26:52;16.40;99.20
4809;DHT22;2418;49.930;8.606;2022-11-02T13:32:32;16.40;99.20
4809;DHT22;2418;49.930;8.606;2022-11-02T13:35:04;16.50;99.20
4809;DHT22;2418;49.930;8.606;2022-11-02T13:37:38;16.50;99.20
4809;DHT22;2418;49.930;8.606;2022-11-02T13:40:17;16.50;99.20
4809;DHT22;2418;49.930;8.606;2022-11-02T13:48:39;16.40;99.20
4809;DHT22;2418;49.930;8.606;2022-11-02T13:51:52;16.40;99.20
4809;DHT22;2418;49.930;8.606;2022-11-02T13:56:57;16.40;99.20
4809;DHT22;2418;49.930;8.606;2022-11-02T13:59:29;16.50;99.20
4809;DHT22;2418;49.930;8.606;2022-11-02T14:01:59;16.50;99.20
4809;DHT22;2418;49.930;8.606;2022-11-02T14:04:27;16.40;99.20
4809;DHT22;2418;49.930;8.606;2022-11-02T14:07:00;16.40;99.20
4809;DHT22;2418;49.930;8.606;2022-11-02T14:09:40;16.40;99.20
4809;DHT22;2418;49.930;8.606;2022-11-02T14:20:37;16.40;99.20
4809;DHT22;2418;49.930;8.606;2022-11-02T14:25:54;16.20;99.20
4809;DHT22;2418;49.930;8.606;2022-11-02T14:30:46;15.90;99.20
4809;DHT22;2418;49.930;8.606;2022-11-02T14:38:55;15.60;99.20
4809;DHT22;2418;49.930;8.606;2022-11-02T14:41:42;15.60;99.20
4809;DHT22;2418;49.930;8.606;2022-11-02T14:44:23;15.70;99.20
4809;DHT22;2418;49.930;8.606;2022-11-02T14:47:07;15.60;99.20
4809;DHT22;2418;49.930;8.606;2022-11-02T14:49:49;15.60;99.20
4809;DHT22;2418;49.930;8.606;2022-11-02T14:52:31;15.50;99.20
4809;DHT22;2418;49.930;8.606;2022-11-02T14:57:37;15.30;99.20
4809;DHT22;2418;49.930;8.606;2022-11-02T15:00:17;15.30;99.20
4809;DHT22;2418;49.930;8.606;2022-11-02T15:02:43;15.30;99.20
4809;DHT22;2418;49.930;8.606;2022-11-02T15:07:55;15.20;99.20
4809;DHT22;2418;49.930;8.606;2022-11-02T15:27:02;14.60;99.20
4809;DHT22;2418;49.930;8.606;2022-11-02T15:29:04;14.50;99.20
4809;DHT22;2418;49.930;8.606;2022-11-02T15:31:33;14.40;99.20
4809;DHT22;2418;49.930;8.606;2022-11-02T15:34:02;14.30;99.20
4809;DHT22;2418;49.930;8.606;2022-11-02T15:36:32;14.20;99.20
4809;DHT22;2418;49.930;8.606;2022-11-02T15:39:01;14.10;99.20
4809;DHT22;2418;49.930;8.606;2022-11-02T15:41:43;13.90;99.20
4809;DHT22;2418;49.930;8.606;2022-11-02T15:44:31;13.80;99.20
4809;DHT22;2418;49.930;8.606;2022-11-02T15:49:43;13.50;99.20
4809;DHT22;2418;49.930;8.606;2022-11-02T15:55:20;13.20;99.20
4809;DHT22;2418;49.930;8.606;2022-11-02T16:01:12;12.90;99.20
4809;DHT22;2418;49.930;8.606;2022-11-02T16:03:52;12.70;99.20
4809;DHT22;2418;49.930;8.606;2022-11-02T16:06:25;12.50;99.20
4809;DHT22;2418;49.930;8.606;2022-11-02T16:08:52;12.40;99.20
4809;DHT22;2418;49.930;8.606;2022-11-02T16:11:20;12.30;99.20
4809;DHT22;2418;49.930;8.606;2022-11-02T16:13:48;12.20;99.20
4809;DHT22;2418;49.930;8.606;2022-11-02T16:16:16;12.20;99.20
4809;DHT22;2418;49.930;8.606;2022-11-02T16:18:43;12.10;99.20
4809;DHT22;2418;49.930;8.606;2022-11-02T16:21:14;12.00;99.20
4809;DHT22;2418;49.930;8.606;2022-11-02T16:23:49;11.90;99.20
4809;DHT22;2418;49.930;8.606;2022-11-02T16:26:21;11.80;99.20
4809;DHT22;2418;49.930;8.606;2022-11-02T16:28:53;11.70;99.20
4809;DHT22;2418;49.930;8.606;2022-11-02T16:31:23;11.60;99.20
4809;DHT22;2418;49.930;8.606;2022-11-02T16:34:04;11.50;99.20
4809;DHT22;2418;49.930;8.606;2022-11-02T16:36:35;11.40;99.20
4809;DHT22;2418;49.930;8.606;2022-11-02T16:39:15;11.40;99.20
4809;DHT22;2418;49.930;8.606;2022-11-02T16:41:49;11.30;99.20
4809;DHT22;2418;49.930;8.606;2022-11-02T16:44:26;11.20;99.20
4809;DHT22;2418;49.930;8.606;2022-11-02T16:46:57;11.10;99.20
4809;DHT22;2418;49.930;8.606;2022-11-02T16:49:24;11.10;99.20
4809;DHT22;2418;49.930;8.606;2022-11-02T16:51:53;11.00;99.20
4809;DHT22;2418;49.930;8.606;2022-11-02T16:54:39;10.90;99.20
4809;DHT22;2418;49.930;8.606;2022-11-02T16:59:56;10.70;99.20
4809;DHT22;2418;49.930;8.606;2022-11-02T17:02:37;10.70;99.20
4809;DHT22;2418;49.930;8.606;2022-11-02T17:05:05;10.70;99.20
4809;DHT22;2418;49.930;8.606;2022-11-02T17:08:04;10.70;99.20
4809;DHT22;2418;49.930;8.606;2022-11-02T17:10:34;10.70;99.20
4809;DHT22;2418;49.930;8.606;2022-11-02T17:13:02;10.70;99.20
4809;DHT22;2418;49.930;8.606;2022-11-02T17:15:31;10.60;99.20
4809;DHT22;2418;49.930;8.606;2022-11-02T17:20:31;10.40;99.20
4809;DHT22;2418;49.930;8.606;2022-11-02T17:23:03;10.40;99.20
4809;DHT22;2418;49.930;8.606;2022-11-02T17:25:39;10.30;99.20
4809;DHT22;2418;49.930;8.606;2022-11-02T17:28:41;10.20;99.20
4809;DHT22;2418;49.930;8.606;2022-11-02T17:31:22;10.00;99.20
4809;DHT22;2418;49.930;8.606;2022-11-02T17:33:49;9.90;99.20
4809;DHT22;2418;49.930;8.606;2022-11-02T17:36:15;9.70;99.20
4809;DHT22;2418;49.930;8.606;2022-11-02T17:38:41;9.70;99.20
4809;DHT22;2418;49.930;8.606;2022-11-02T17:41:12;9.60;99.20
4809;DHT22;2418;49.930;8.606;2022-11-02T17:43:58;9.60;99.20
4809;DHT22;2418;49.930;8.606;2022-11-02T17:46:24;9.70;99.20
4809;DHT22;2418;49.930;8.606;2022-11-02T17:48:49;9.70;99.20
4809;DHT22;2418;49.930;8.606;2022-11-02T17:51:17;9.60;99.20
4809;DHT22;2418;49.930;8.606;2022-11-02T17:53:44;9.60;99.20
4809;DHT22;2418;49.930;8.606;2022-11-02T17:56:10;9.50;99.20
4809;DHT22;2418;49.930;8.606;2022-11-02T17:58:35;9.50;99.20
4809;DHT22;2418;49.930;8.606;2022-11-02T18:01:03;9.30;99.20
4809;DHT22;2418;49.930;8.606;2022-11-02T18:03:28;9.20;99.20
4809;DHT22;2418;49.930;8.606;2022-11-02T18:05:55;9.10;99.20
4809;DHT22;2418;49.930;8.606;2022-11-02T18:08:21;9.10;99.20
4809;DHT22;2418;49.930;8.606;2022-11-02T18:10:48;9.10;99.20
4809;DHT22;2418;49.930;8.606;2022-11-02T18:13:17;9.00;99.20
4809;DHT22;2418;49.930;8.606;2022-11-02T18:15:44;9.00;99.20
4809;DHT22;2418;49.930;8.606;2022-11-02T18:18:10;9.00;99.20
4809;DHT22;2418;49.930;8.606;2022-11-02T18:20:36;8.90;99.20
4809;DHT22;2418;49.930;8.606;2022-11-02T18:23:02;9.00;99.20
4809;DHT22;2418;49.930;8.606;2022-11-02T18:25:29;8.90;99.20
4809;DHT22;2418;49.930;8.606;2022-11-02T18:27:55;8.90;99.20
4809;DHT22;2418;49.930;8.606;2022-11-02T18:30:21;8.80;99.20
4809;DHT22;2418;49.930;8.606;2022-11-02T18:32:47;8.90;99.20
4809;DHT22;2418;49.930;8.606;2022-11-02T18:35:18;8.80;99.20
4809;DHT22;2418;49.930;8.606;2022-11-02T18:37:45;8.70;99.20
4809;DHT22;2418;49.930;8.606;2022-11-02T18:40:12;8.60;99.20
4809;DHT22;2418;49.930;8.606;2022-11-02T18:42:40;8.70;99.20
4809;DHT22;2418;49.930;8.606;2022-11-02T18:45:07;8.60;99.20
4809;DHT22;2418;49.930;8.606;2022-11-02T18:47:34;8.50;99.20
4809;DHT22;2418;49.930;8.606;2022-11-02T18:50:00;8.60;99.20
4809;DHT22;2418;49.930;8.606;2022-11-02T18:52:27;8.60;99.20
4809;DHT22;2418;49.930;8.606;2022-11-02T18:54:55;8.50;99.20